Time;durP1;ratioP1;P1;durP2;ratioP2;P2;SDS_P1;SDS_P2;PMS_P1;PMS_P2;Temp;Humidity;BMP_temperature;BMP_pressure;BME280_temperature;BME280_humidity;BME280_pressure;Samples;Min_cycle;Max_cycle;Signal;HPM_P1;HPM_P2
2022/12/01 00:00:36;;;;;;;0.60;0.60;;;1.60;99.90;;;;;;5113339;28;20642;-84
2022/12/01 00:03:02;;;;;;;0.60;0.60;;;1.60;99.90;;;;;;5114038;28;20222;-85
2022/12/01 00:05:28;;;;;;;0.60;0.60;;;1.60;99.90;;;;;;5113148;28;20237;-84
2022/12/01 00:07:56;;;;;;;0.50;0.50;;;1.60;99.90;;;;;;5095091;28;20203;-84
2022/12/01 00:10:25;;;;;;;0.50;0.50;;;1.60;99.90;;;;;;5113506;28;20207;-84
2022/12/01 00:13:02;;;;;;;0.60;0.60;;;1.60;99.90;;;;;;5113345;28;20256;-84
2022/12/01 00:15:30;;;;;;;0.50;0.50;;;1.60;99.90;;;;;;5093383;28;20191;-85
2022/12/01 00:17:57;;;;;;;0.60;0.60;;;1.60;99.90;;;;;;5113611;28;20266;-85
2022/12/01 00:20:23;;;;;;;0.50;0.50;;;1.60;99.90;;;;;;5113403;28;20240;-84
2022/12/01 00:22:49;;;;;;;0.60;0.60;;;1.60;99.90;;;;;;5094965;28;20203;-84
2022/12/01 00:25:17;;;;;;;0.60;0.60;;;1.50;99.90;;;;;;5113313;28;20231;-85
2022/12/01 00:27:48;;;;;;;0.70;0.70;;;1.60;99.90;;;;;;5113360;28;20553;-84
2022/12/01 00:30:14;;;;;;;0.60;0.60;;;1.60;99.90;;;;;;5095301;28;20199;-84
2022/12/01 00:32:40;;;;;;;0.55;0.55;;;1.50;99.90;;;;;;5113043;28;20326;-84
2022/12/01 00:35:06;;;;;;;0.60;0.60;;;1.50;99.90;;;;;;5095177;28;20217;-84
2022/12/01 00:37:33;;;;;;;0.60;0.60;;;1.50;99.90;;;;;;5113360;28;20638;-85
2022/12/01 00:40:00;;;;;;;0.50;0.50;;;1.50;99.90;;;;;;5094977;28;20701;-85
2022/12/01 00:42:27;;;;;;;0.50;0.50;;;1.50;99.90;;;;;;5096705;28;20196;-84
2022/12/01 00:44:53;;;;;;;0.60;0.60;;;1.40;99.90;;;;;;5098898;28;20280;-84
2022/12/01 00:47:18;;;;;;;0.50;0.50;;;1.40;99.90;;;;;;5097833;28;20225;-84
2022/12/01 00:49:45;;;;;;;0.50;0.50;;;1.40;99.90;;;;;;5117401;28;20726;-84
2022/12/01 00:52:15;;;;;;;0.70;0.70;;;1.40;99.90;;;;;;5117605;28;20587;-84
2022/12/01 00:54:42;;;;;;;0.68;0.68;;;1.40;99.90;;;;;;5117214;28;20268;-84
2022/12/01 00:57:08;;;;;;;0.50;0.50;;;1.40;99.90;;;;;;5117019;28;20198;-84
2022/12/01 00:59:34;;;;;;;0.40;0.40;;;1.40;99.90;;;;;;5116964;28;20234;-85
2022/12/01 01:02:01;;;;;;;0.60;0.60;;;1.40;99.90;;;;;;5117116;28;20187;-84
2022/12/01 01:04:29;;;;;;;0.57;0.57;;;1.40;99.90;;;;;;5116693;28;20700;-84
2022/12/01 01:06:55;;;;;;;0.60;0.60;;;1.40;99.90;;;;;;5117016;28;20256;-84
2022/12/01 01:09:21;;;;;;;0.60;0.60;;;1.50;99.90;;;;;;5098237;28;20187;-83
2022/12/01 01:11:47;;;;;;;0.70;0.70;;;1.50;99.90;;;;;;5114689;28;20541;-85
2022/12/01 01:14:13;;;;;;;0.60;0.60;;;1.40;99.90;;;;;;5111201;28;20226;-84
2022/12/01 01:16:38;;;;;;;0.60;0.60;;;1.40;99.90;;;;;;5116140;28;20654;-85
2022/12/01 01:19:04;;;;;;;0.60;0.60;;;1.40;99.90;;;;;;5097525;28;20194;-84
2022/12/01 01:21:30;;;;;;;0.60;0.60;;;1.40;99.90;;;;;;5116636;27;20270;-84
2022/12/01 01:23:56;;;;;;;0.90;0.90;;;1.40;99.90;;;;;;5125568;27;20203;-84
2022/12/01 01:26:22;;;;;;;0.60;0.60;;;1.40;99.90;;;;;;5116375;28;20252;-84
2022/12/01 01:28:49;;;;;;;0.60;0.60;;;1.30;99.90;;;;;;5097939;28;20199;-83
2022/12/01 01:31:23;;;;;;;0.60;0.60;;;1.30;99.90;;;;;;5098041;28;20681;-84
2022/12/01 01:33:49;;;;;;;0.50;0.50;;;1.30;99.90;;;;;;5098030;28;20339;-84
2022/12/01 01:36:16;;;;;;;0.70;0.70;;;1.30;99.90;;;;;;5097913;28;20657;-84
2022/12/01 01:38:42;;;;;;;0.60;0.60;;;1.30;99.90;;;;;;5097466;28;20255;-84
2022/12/01 01:41:08;;;;;;;0.70;0.70;;;1.30;99.90;;;;;;5116308;28;20655;-84
2022/12/01 01:43:42;;;;;;;0.60;0.60;;;1.30;99.90;;;;;;5097394;28;20207;-84
2022/12/01 01:46:16;;;;;;;0.50;0.50;;;1.30;99.90;;;;;;5097826;28;20199;-83
2022/12/01 01:48:56;;;;;;;0.63;0.63;;;1.20;99.90;;;;;;5115121;28;20279;-84
2022/12/01 01:51:48;;;;;;;0.60;0.60;;;1.30;99.90;;;;;;5115696;28;20812;-82
2022/12/01 01:54:22;;;;;;;0.50;0.50;;;1.20;99.90;;;;;;5083257;28;20632;-82
2022/12/01 01:56:50;;;;;;;0.68;0.68;;;1.20;99.90;;;;;;5115095;28;20191;-84
2022/12/01 01:59:21;;;;;;;0.60;0.60;;;1.20;99.90;;;;;;5115546;28;20730;-84
2022/12/01 02:01:55;;;;;;;0.60;0.60;;;1.20;99.90;;;;;;5097366;28;20199;-79
2022/12/01 02:04:23;;;;;;;0.50;0.50;;;1.10;99.90;;;;;;5096974;28;20210;-79
2022/12/01 02:06:49;;;;;;;0.60;0.60;;;1.20;99.90;;;;;;5097041;28;20202;-80
2022/12/01 02:09:14;;;;;;;0.65;0.65;;;1.10;99.90;;;;;;5093203;28;20239;-79
2022/12/01 02:12:11;;;;;;;0.68;0.68;;;1.10;99.90;;;;;;5114365;28;20196;-80
2022/12/01 02:14:55;;;;;;;0.50;0.50;;;1.00;99.90;;;;;;5114838;28;20203;-80
2022/12/01 02:17:33;;;;;;;0.70;0.70;;;1.10;99.90;;;;;;5114352;28;20649;-79
2022/12/01 02:20:20;;;;;;;1.05;1.05;;;1.10;99.90;;;;;;5107952;28;20654;-79
2022/12/01 02:22:52;;;;;;;0.50;0.50;;;1.10;99.90;;;;;;5095441;28;20202;-79
2022/12/01 02:25:53;;;;;;;0.50;0.50;;;1.10;99.90;;;;;;5076462;28;20637;-79
2022/12/01 02:28:34;;;;;;;0.60;0.60;;;1.10;99.90;;;;;;5076451;28;20191;-79
2022/12/01 02:31:41;;;;;;;0.57;0.57;;;1.10;99.90;;;;;;5076365;28;20252;-79
2022/12/01 02:34:25;;;;;;;0.55;0.55;;;1.20;99.90;;;;;;5072816;28;20691;-79
2022/12/01 02:36:58;;;;;;;0.55;0.55;;;1.20;99.90;;;;;;5093607;28;20202;-79
2022/12/01 02:39:31;;;;;;;0.60;0.60;;;1.20;99.90;;;;;;5107455;28;20235;-79
2022/12/01 02:45:09;;;;;;;0.60;0.60;;;1.20;99.90;;;;;;5114504;28;20267;-80
2022/12/01 02:47:37;;;;;;;0.60;0.60;;;1.20;99.90;;;;;;5113978;28;20670;-79
2022/12/01 02:50:04;;;;;;;0.55;0.55;;;1.10;99.90;;;;;;5114191;28;20556;-79
2022/12/01 02:52:31;;;;;;;0.52;0.52;;;1.20;99.90;;;;;;5113719;28;20210;-79
2022/12/01 02:54:56;;;;;;;0.60;0.60;;;1.20;99.90;;;;;;5113842;28;20200;-79
2022/12/01 02:57:23;;;;;;;0.60;0.60;;;1.20;99.90;;;;;;5095664;28;20252;-79
2022/12/01 02:59:53;;;;;;;0.70;0.70;;;1.10;99.90;;;;;;5095514;28;20195;-79
2022/12/01 03:02:53;;;;;;;0.50;0.50;;;1.10;99.90;;;;;;5094817;28;20654;-79
2022/12/01 03:05:36;;;;;;;0.55;0.55;;;1.20;99.90;;;;;;5094670;28;20662;-79
2022/12/01 03:08:44;;;;;;;0.93;0.93;;;1.20;99.90;;;;;;5095577;28;20191;-79
2022/12/01 03:11:25;;;;;;;0.50;0.50;;;1.20;99.90;;;;;;5066816;28;20210;-79
2022/12/01 03:14:03;;;;;;;0.65;0.65;;;1.20;99.90;;;;;;5117621;27;20207;-80
2022/12/01 03:16:52;;;;;;;0.70;0.70;;;1.20;99.90;;;;;;5133910;27;20671;-81
2022/12/01 03:19:37;;;;;;;0.60;0.60;;;1.10;99.90;;;;;;5121435;27;20686;-79
2022/12/01 03:22:29;;;;;;;0.70;0.70;;;1.10;99.90;;;;;;5134569;27;20191;-79
2022/12/01 03:24:56;;;;;;;0.50;0.50;;;1.10;99.90;;;;;;5115186;27;20194;-79
2022/12/01 03:27:26;;;;;;;0.60;0.60;;;1.10;99.90;;;;;;5095331;28;20244;-79
2022/12/01 03:29:55;;;;;;;0.65;0.60;;;1.10;99.90;;;;;;5113721;28;20351;-79
2022/12/01 03:32:24;;;;;;;0.52;0.52;;;1.10;99.90;;;;;;5094899;28;20203;-80
2022/12/01 03:35:15;;;;;;;0.70;0.70;;;1.10;99.90;;;;;;5110505;28;20198;-79
2022/12/01 03:37:49;;;;;;;0.70;0.70;;;1.10;99.90;;;;;;5095282;28;20667;-79
2022/12/01 03:40:18;;;;;;;0.68;0.68;;;1.10;99.90;;;;;;5113568;28;20225;-79
2022/12/01 03:42:50;;;;;;;0.50;0.50;;;1.10;99.90;;;;;;5095214;28;20196;-79
2022/12/01 03:45:23;;;;;;;0.57;0.57;;;1.10;99.90;;;;;;5112869;28;20651;-80
2022/12/01 03:47:50;;;;;;;0.60;0.60;;;1.10;99.90;;;;;;5112949;28;20553;-79
2022/12/01 03:50:17;;;;;;;0.60;0.60;;;1.10;99.90;;;;;;5113224;28;20187;-79
2022/12/01 03:53:05;;;;;;;0.50;0.50;;;1.10;99.90;;;;;;5112741;28;20663;-79
2022/12/01 03:55:37;;;;;;;0.60;0.60;;;1.10;99.90;;;;;;5113091;28;20589;-79
2022/12/01 03:58:11;;;;;;;0.52;0.52;;;1.10;99.90;;;;;;5112989;28;20187;-79
2022/12/01 04:00:37;;;;;;;0.60;0.60;;;1.00;99.90;;;;;;5112584;28;20191;-79
2022/12/01 04:03:04;;;;;;;0.63;0.63;;;1.10;99.90;;;;;;5111879;28;20654;-80
2022/12/01 04:05:31;;;;;;;0.50;0.50;;;1.10;99.90;;;;;;5094453;28;20218;-79
2022/12/01 04:07:57;;;;;;;0.60;0.60;;;1.10;99.90;;;;;;5094698;28;20192;-79
2022/12/01 04:10:23;;;;;;;0.60;0.60;;;1.10;99.90;;;;;;5113039;28;20650;-79
2022/12/01 04:12:49;;;;;;;0.70;0.70;;;1.10;99.90;;;;;;5094854;28;20279;-79
2022/12/01 04:15:15;;;;;;;0.50;0.50;;;1.10;99.90;;;;;;5094895;28;20220;-79
2022/12/01 04:17:43;;;;;;;0.50;0.50;;;1.10;99.90;;;;;;5115302;28;20195;-79
2022/12/01 04:20:11;;;;;;;0.52;0.52;;;1.00;99.90;;;;;;5099121;28;20274;-79
2022/12/01 04:22:37;;;;;;;0.70;0.70;;;1.10;99.90;;;;;;5117189;28;20198;-79
2022/12/01 04:25:05;;;;;;;0.60;0.60;;;1.10;99.90;;;;;;5111056;28;20191;-80
2022/12/01 04:27:31;;;;;;;0.60;0.60;;;1.00;99.90;;;;;;5117160;28;20651;-79
2022/12/01 04:29:57;;;;;;;0.60;0.60;;;1.00;99.90;;;;;;5117347;28;20191;-79
2022/12/01 04:32:23;;;;;;;0.50;0.50;;;1.00;99.90;;;;;;5115737;28;20194;-79
2022/12/01 04:34:48;;;;;;;0.50;0.50;;;1.00;99.90;;;;;;5098831;28;20195;-79
2022/12/01 04:37:14;;;;;;;0.55;0.55;;;1.00;99.90;;;;;;5117358;28;20187;-79
2022/12/01 04:39:41;;;;;;;0.57;0.57;;;1.00;99.90;;;;;;5098463;28;20235;-79
2022/12/01 04:42:07;;;;;;;0.60;0.60;;;1.00;99.90;;;;;;5117033;28;20189;-79
2022/12/01 04:44:33;;;;;;;0.60;0.60;;;1.00;99.90;;;;;;5116853;28;20198;-79
2022/12/01 04:46:58;;;;;;;0.60;0.60;;;1.00;99.90;;;;;;5098775;28;20199;-79
2022/12/01 04:49:24;;;;;;;0.60;0.60;;;1.00;99.90;;;;;;5116535;28;20207;-79
2022/12/01 04:51:50;;;;;;;0.50;0.50;;;1.00;99.90;;;;;;5116893;28;20664;-79
2022/12/01 04:54:16;;;;;;;0.57;0.57;;;1.00;99.90;;;;;;5116676;28;20211;-79
2022/12/01 04:56:42;;;;;;;0.70;0.70;;;1.00;99.90;;;;;;5098202;28;20200;-79
2022/12/01 04:59:08;;;;;;;1.20;1.08;;;1.00;99.90;;;;;;5116738;28;20266;-79
2022/12/01 05:01:34;;;;;;;0.55;0.55;;;1.00;99.90;;;;;;5116555;28;20471;-79
2022/12/01 05:04:00;;;;;;;0.65;0.65;;;1.00;99.90;;;;;;5115515;28;20540;-79
2022/12/01 05:06:27;;;;;;;0.70;0.70;;;1.00;99.90;;;;;;5116407;28;20688;-79
2022/12/01 05:08:56;;;;;;;0.60;0.60;;;0.90;99.90;;;;;;5116564;28;20202;-79
2022/12/01 05:11:22;;;;;;;0.52;0.52;;;0.90;99.90;;;;;;5116711;28;20196;-79
2022/12/01 05:13:48;;;;;;;0.50;0.50;;;1.00;99.90;;;;;;5116330;28;20477;-79
2022/12/01 05:16:19;;;;;;;0.60;0.60;;;1.00;99.90;;;;;;5098126;28;20199;-81
2022/12/01 05:21:49;;;;;;;0.60;0.60;;;1.00;99.90;;;;;;5116283;28;20795;-80
2022/12/01 05:24:16;;;;;;;0.60;0.60;;;1.00;99.90;;;;;;5115423;28;20199;-79
2022/12/01 05:26:42;;;;;;;0.60;0.60;;;1.00;99.90;;;;;;5115183;28;20194;-81
2022/12/01 05:29:09;;;;;;;0.70;0.70;;;1.00;99.90;;;;;;5115614;28;20278;-80
2022/12/01 05:31:35;;;;;;;0.55;0.55;;;0.90;99.90;;;;;;5115539;28;20219;-79
2022/12/01 05:34:01;;;;;;;0.70;0.70;;;1.00;99.90;;;;;;5097118;28;20215;-79
2022/12/01 05:36:27;;;;;;;0.60;0.60;;;0.90;99.90;;;;;;5096822;28;20192;-79
2022/12/01 05:38:53;;;;;;;0.65;0.65;;;0.80;99.90;;;;;;5097089;28;20230;-79
2022/12/01 05:41:19;;;;;;;0.60;0.60;;;0.90;99.90;;;;;;5115519;28;20191;-79
2022/12/01 05:43:45;;;;;;;0.68;0.68;;;0.80;99.90;;;;;;5115051;28;20282;-79
2022/12/01 05:46:11;;;;;;;0.57;0.57;;;0.90;99.90;;;;;;5115342;28;20211;-79
2022/12/01 05:48:37;;;;;;;0.60;0.60;;;0.90;99.90;;;;;;5115155;28;20658;-80
2022/12/01 05:51:14;;;;;;;0.70;0.70;;;0.90;99.90;;;;;;5114959;28;20192;-79
2022/12/01 05:53:40;;;;;;;0.70;0.70;;;0.90;99.90;;;;;;5115156;28;20256;-79
2022/12/01 05:56:07;;;;;;;0.70;0.70;;;0.90;99.90;;;;;;5115690;28;20192;-80
2022/12/01 05:58:34;;;;;;;0.68;0.68;;;0.80;99.90;;;;;;5114943;28;20574;-80
2022/12/01 06:01:00;;;;;;;0.60;0.60;;;0.80;99.90;;;;;;5115868;28;20597;-80
2022/12/01 06:03:25;;;;;;;0.70;0.70;;;0.80;99.90;;;;;;5096495;28;20690;-78
2022/12/01 06:05:51;;;;;;;0.60;0.60;;;0.80;99.90;;;;;;5097177;28;20290;-77
2022/12/01 06:08:17;;;;;;;0.60;0.60;;;0.80;99.90;;;;;;5097087;28;20223;-78
2022/12/01 06:10:43;;;;;;;0.70;0.70;;;0.80;99.90;;;;;;5096701;28;20244;-78
2022/12/01 06:13:09;;;;;;;0.95;0.95;;;0.80;99.90;;;;;;5114947;28;20203;-80
2022/12/01 06:15:35;;;;;;;0.65;0.65;;;0.80;99.90;;;;;;5115085;28;20240;-77
2022/12/01 06:18:00;;;;;;;0.75;0.75;;;0.80;99.90;;;;;;5115133;28;20188;-78
2022/12/01 06:20:26;;;;;;;0.93;0.93;;;0.80;99.90;;;;;;5096632;28;20197;-80
2022/12/01 06:22:52;;;;;;;0.70;0.70;;;0.80;99.90;;;;;;5114211;28;20244;-79
2022/12/01 06:25:18;;;;;;;0.65;0.65;;;0.80;99.90;;;;;;5115042;28;20607;-78
2022/12/01 06:27:44;;;;;;;0.70;0.70;;;0.80;99.90;;;;;;5114871;28;20187;-79
2022/12/01 06:30:10;;;;;;;0.65;0.65;;;0.80;99.90;;;;;;5114361;28;20222;-78
2022/12/01 06:32:36;;;;;;;0.50;0.50;;;0.80;99.90;;;;;;5096394;28;20203;-79
2022/12/01 06:35:01;;;;;;;0.80;0.80;;;0.90;99.90;;;;;;5114949;28;20187;-78
2022/12/01 06:37:27;;;;;;;0.60;0.60;;;0.90;99.90;;;;;;5114543;28;20248;-78
2022/12/01 06:39:53;;;;;;;3.05;2.50;;;0.90;99.90;;;;;;5113790;28;20220;-78
2022/12/01 06:42:18;;;;;;;1.10;1.10;;;0.80;99.90;;;;;;5096677;28;20199;-78
2022/12/01 06:44:45;;;;;;;1.10;1.00;;;0.90;99.90;;;;;;5114555;28;20568;-78
2022/12/01 06:47:10;;;;;;;0.75;0.75;;;0.80;99.90;;;;;;5114618;28;20646;-78
2022/12/01 06:49:37;;;;;;;1.27;1.17;;;0.80;99.90;;;;;;5096328;28;20200;-78
2022/12/01 06:52:03;;;;;;;0.60;0.60;;;0.80;99.90;;;;;;5114540;28;20194;-78
2022/12/01 06:54:29;;;;;;;1.05;1.05;;;0.80;99.90;;;;;;5114294;28;20593;-79
2022/12/01 06:56:55;;;;;;;1.98;1.67;;;0.80;99.90;;;;;;5114342;28;20657;-78
2022/12/01 06:59:20;;;;;;;2.47;1.52;;;0.80;99.90;;;;;;5114002;28;20274;-78
2022/12/01 07:01:46;;;;;;;3.15;0.90;;;0.80;99.90;;;;;;5114253;28;20219;-78
2022/12/01 07:04:12;;;;;;;1.20;1.10;;;0.80;99.90;;;;;;5114317;28;20192;-78
2022/12/01 07:06:37;;;;;;;0.70;0.70;;;0.80;99.90;;;;;;5114046;28;20244;-78
2022/12/01 07:09:03;;;;;;;0.80;0.80;;;0.80;99.90;;;;;;5114068;28;20188;-78
2022/12/01 07:11:31;;;;;;;0.60;0.60;;;0.80;99.90;;;;;;5114020;28;20199;-78
2022/12/01 07:13:57;;;;;;;0.90;0.85;;;0.80;99.90;;;;;;5095686;28;20218;-78
2022/12/01 07:16:22;;;;;;;0.80;0.80;;;0.90;99.90;;;;;;5095512;28;20214;-78
2022/12/01 07:18:49;;;;;;;0.85;0.85;;;0.90;99.90;;;;;;5113811;28;21180;-78
2022/12/01 07:21:15;;;;;;;0.70;0.70;;;0.90;99.90;;;;;;5113535;28;20717;-78
2022/12/01 07:23:41;;;;;;;0.77;0.77;;;0.90;99.90;;;;;;5091529;28;20241;-77
2022/12/01 07:26:14;;;;;;;1.25;1.20;;;0.90;99.90;;;;;;5093302;28;20192;-78
2022/12/01 07:28:43;;;;;;;2.30;1.35;;;0.90;99.90;;;;;;5093107;28;20192;-78
2022/12/01 07:31:09;;;;;;;5.45;3.50;;;0.90;99.90;;;;;;5075000;28;20249;-78
2022/12/01 07:33:35;;;;;;;0.70;0.70;;;0.90;99.90;;;;;;5093022;28;20211;-78
2022/12/01 07:36:02;;;;;;;0.52;0.52;;;0.90;99.90;;;;;;5092973;28;20677;-78
2022/12/01 07:38:29;;;;;;;1.33;1.23;;;0.90;99.90;;;;;;5074011;28;20285;-79
2022/12/01 07:40:54;;;;;;;0.60;0.60;;;0.90;99.90;;;;;;5092822;28;20203;-78
2022/12/01 07:43:20;;;;;;;0.70;0.70;;;0.90;99.90;;;;;;5092965;28;20196;-79
2022/12/01 07:45:46;;;;;;;0.60;0.60;;;0.90;99.90;;;;;;5078617;28;20203;-78
2022/12/01 07:48:11;;;;;;;0.75;0.75;;;0.90;99.90;;;;;;5113071;28;20231;-78
2022/12/01 07:50:37;;;;;;;0.60;0.60;;;0.80;99.90;;;;;;5112636;28;20187;-79
2022/12/01 07:53:03;;;;;;;0.60;0.60;;;0.80;99.90;;;;;;5094606;28;20219;-78
2022/12/01 07:55:28;;;;;;;1.20;1.10;;;0.80;99.90;;;;;;5094301;28;20274;-78
2022/12/01 07:57:54;;;;;;;3.00;1.17;;;0.80;99.90;;;;;;5094216;28;20206;-78
2022/12/01 08:00:20;;;;;;;2.15;1.95;;;0.90;99.90;;;;;;5094956;28;20187;-78
2022/12/01 08:02:48;;;;;;;0.80;0.80;;;0.90;99.90;;;;;;5094096;28;20273;-79
2022/12/01 08:05:13;;;;;;;0.70;0.70;;;0.90;99.90;;;;;;5112940;28;20187;-79
2022/12/01 08:07:39;;;;;;;1.02;1.02;;;0.90;99.90;;;;;;5094521;28;20279;-78
2022/12/01 08:10:05;;;;;;;0.90;0.90;;;0.90;99.90;;;;;;5095550;28;20206;-79
2022/12/01 08:12:31;;;;;;;0.60;0.60;;;0.90;99.90;;;;;;5094578;28;20236;-79
2022/12/01 08:14:56;;;;;;;0.95;0.95;;;0.90;99.90;;;;;;5112998;28;20191;-78
2022/12/01 08:17:22;;;;;;;1.63;1.52;;;0.90;99.90;;;;;;5094548;28;20191;-79
2022/12/01 08:19:47;;;;;;;1.40;1.33;;;0.90;99.90;;;;;;5113119;28;20194;-78
2022/12/01 08:22:13;;;;;;;1.30;0.98;;;0.90;99.90;;;;;;5113140;28;20256;-79
2022/12/01 08:24:39;;;;;;;0.55;0.55;;;0.90;99.90;;;;;;5091054;28;20265;-78
2022/12/01 08:27:04;;;;;;;0.55;0.55;;;1.00;99.90;;;;;;5092667;28;20279;-78
2022/12/01 08:29:30;;;;;;;0.65;0.65;;;0.90;99.90;;;;;;5092570;28;20188;-78
2022/12/01 08:31:59;;;;;;;0.60;0.60;;;1.00;99.90;;;;;;5092752;28;20195;-78
2022/12/01 08:34:24;;;;;;;0.60;0.60;;;0.90;99.90;;;;;;5074244;28;20310;-79
2022/12/01 08:36:50;;;;;;;0.70;0.70;;;1.00;99.90;;;;;;5092650;28;20333;-79
2022/12/01 08:39:16;;;;;;;0.95;0.95;;;1.00;99.90;;;;;;5092636;28;20228;-79
2022/12/01 08:41:41;;;;;;;0.47;0.47;;;1.00;99.90;;;;;;5094115;28;20215;-78
2022/12/01 08:44:09;;;;;;;0.73;0.73;;;1.10;99.90;;;;;;5113089;28;20191;-80
2022/12/01 08:46:35;;;;;;;0.60;0.60;;;1.20;99.90;;;;;;5094422;28;20203;-79
2022/12/01 08:49:02;;;;;;;0.50;0.50;;;1.20;99.90;;;;;;5113037;28;20213;-78
2022/12/01 08:51:28;;;;;;;0.60;0.60;;;1.20;99.90;;;;;;5112442;28;20199;-78
2022/12/01 08:53:56;;;;;;;1.05;1.05;;;1.20;99.90;;;;;;5112645;28;20257;-79
2022/12/01 08:56:29;;;;;;;1.13;1.02;;;1.20;99.90;;;;;;5112646;28;20250;-79
2022/12/01 08:58:55;;;;;;;1.35;1.25;;;1.20;99.90;;;;;;5112742;28;20646;-79
2022/12/01 09:01:21;;;;;;;0.60;0.60;;;1.20;99.90;;;;;;5112148;28;20650;-82
2022/12/01 09:03:47;;;;;;;0.60;0.60;;;1.20;99.90;;;;;;5115194;28;20661;-83
2022/12/01 09:06:21;;;;;;;1.45;1.35;;;1.30;99.90;;;;;;5098838;28;20204;-83
2022/12/01 09:08:47;;;;;;;0.50;0.50;;;1.30;99.90;;;;;;5116933;28;20532;-83
2022/12/01 09:11:16;;;;;;;0.60;0.60;;;1.30;99.90;;;;;;5094744;28;20200;-82
2022/12/01 09:13:42;;;;;;;0.70;0.70;;;1.40;99.90;;;;;;5097737;28;20681;-82
2022/12/01 09:16:12;;;;;;;0.77;0.77;;;1.40;99.90;;;;;;5098312;28;20206;-80
2022/12/01 09:18:38;;;;;;;0.73;0.73;;;1.50;99.90;;;;;;5116311;28;20710;-82
2022/12/01 09:21:31;;;;;;;0.55;0.55;;;1.50;99.90;;;;;;5116493;28;20226;-83
2022/12/01 09:23:57;;;;;;;1.25;1.15;;;1.50;99.90;;;;;;5098316;28;20291;-82
2022/12/01 09:26:23;;;;;;;0.82;0.82;;;1.50;99.90;;;;;;5096216;28;20200;-82
2022/12/01 09:28:52;;;;;;;0.65;0.65;;;1.50;99.90;;;;;;5096249;28;20227;-82
2022/12/01 09:31:19;;;;;;;0.47;0.47;;;1.50;99.90;;;;;;5095689;28;20200;-81
2022/12/01 09:33:45;;;;;;;0.63;0.63;;;1.60;99.90;;;;;;5095638;28;20774;-82
2022/12/01 09:36:12;;;;;;;0.52;0.52;;;1.60;99.90;;;;;;5095834;28;20557;-83
2022/12/01 09:38:38;;;;;;;0.50;0.50;;;1.60;99.90;;;;;;5084445;28;20222;-82
2022/12/01 09:41:17;;;;;;;0.57;0.57;;;1.70;99.90;;;;;;5097288;28;20764;-79
2022/12/01 09:44:04;;;;;;;0.60;0.60;;;1.80;99.90;;;;;;5115314;28;20250;-79
2022/12/01 09:46:40;;;;;;;0.73;0.73;;;1.90;99.90;;;;;;5101834;28;20214;-79
2022/12/01 09:49:19;;;;;;;0.50;0.50;;;2.00;99.90;;;;;;5115845;28;20199;-83
2022/12/01 09:51:45;;;;;;;0.60;0.60;;;2.00;99.90;;;;;;5115527;28;20247;-82
2022/12/01 09:54:13;;;;;;;0.60;0.60;;;2.10;99.90;;;;;;5097855;28;20211;-84
2022/12/01 09:56:49;;;;;;;0.50;0.50;;;2.20;99.90;;;;;;5097661;28;20682;-82
2022/12/01 09:59:28;;;;;;;0.60;0.60;;;2.20;99.90;;;;;;5116218;28;20561;-83
2022/12/01 10:01:58;;;;;;;0.60;0.60;;;2.20;99.90;;;;;;5081448;28;20743;-82
2022/12/01 10:04:27;;;;;;;0.85;0.85;;;2.20;99.90;;;;;;5115502;28;20219;-82
2022/12/01 10:07:24;;;;;;;0.50;0.50;;;2.30;99.90;;;;;;5115475;28;20199;-83
2022/12/01 10:09:55;;;;;;;0.50;0.50;;;2.30;99.90;;;;;;5115465;28;20496;-83
2022/12/01 10:12:26;;;;;;;0.55;0.55;;;2.30;99.90;;;;;;5097307;28;20263;-82
2022/12/01 10:14:57;;;;;;;0.90;0.90;;;2.30;99.90;;;;;;5097440;28;20301;-83
2022/12/01 10:17:31;;;;;;;0.70;0.70;;;2.20;99.90;;;;;;5115467;28;20260;-82
2022/12/01 10:20:17;;;;;;;0.60;0.60;;;2.20;99.90;;;;;;5097203;28;20187;-82
2022/12/01 10:23:00;;;;;;;0.60;0.60;;;2.20;99.90;;;;;;5096348;28;20198;-82
2022/12/01 10:25:30;;;;;;;0.55;0.55;;;2.20;99.90;;;;;;5094708;28;20189;-82
2022/12/01 10:28:10;;;;;;;0.60;0.60;;;2.20;99.90;;;;;;5076526;28;20199;-82
2022/12/01 10:30:46;;;;;;;1.45;1.35;;;2.20;99.90;;;;;;5094577;28;20686;-81
2022/12/01 10:33:24;;;;;;;2.05;1.67;;;2.20;99.90;;;;;;5094763;28;20612;-82
2022/12/01 10:35:51;;;;;;;0.60;0.60;;;2.20;99.90;;;;;;5117631;27;20199;-82
2022/12/01 10:38:27;;;;;;;0.70;0.70;;;2.20;99.90;;;;;;5096585;28;20219;-83
2022/12/01 10:40:56;;;;;;;0.57;0.57;;;2.10;99.90;;;;;;5115042;28;20195;-81
2022/12/01 10:43:52;;;;;;;0.60;0.60;;;2.20;99.90;;;;;;5114111;28;20199;-81
2022/12/01 10:46:42;;;;;;;0.80;0.80;;;2.20;99.90;;;;;;5107799;28;20216;-81
2022/12/01 10:49:13;;;;;;;0.70;0.70;;;2.30;99.90;;;;;;5096492;28;20662;-81
2022/12/01 10:52:06;;;;;;;0.60;0.60;;;2.30;99.90;;;;;;5096156;28;20227;-81
2022/12/01 10:54:38;;;;;;;0.60;0.60;;;2.20;99.90;;;;;;5109611;28;20765;-81
2022/12/01 10:57:06;;;;;;;0.65;0.65;;;2.20;99.90;;;;;;5114691;28;20188;-81
2022/12/01 10:59:42;;;;;;;0.60;0.60;;;2.20;99.90;;;;;;5114297;28;20230;-80
2022/12/01 11:02:16;;;;;;;0.60;0.60;;;2.20;99.90;;;;;;5114749;28;20737;-81
2022/12/01 11:04:49;;;;;;;0.88;0.85;;;2.10;99.90;;;;;;5099751;28;20199;-81
2022/12/01 11:07:28;;;;;;;0.60;0.60;;;2.10;99.90;;;;;;5114478;28;20199;-81
2022/12/01 11:10:13;;;;;;;0.50;0.50;;;2.10;99.90;;;;;;5114269;28;20270;-81
2022/12/01 11:12:39;;;;;;;0.80;0.80;;;2.10;99.90;;;;;;5095447;28;20209;-81
2022/12/01 11:15:05;;;;;;;1.15;1.10;;;2.10;99.90;;;;;;5096101;28;20264;-81
2022/12/01 11:17:42;;;;;;;1.40;1.23;;;2.10;99.90;;;;;;5113878;28;20190;-81
2022/12/01 11:20:32;;;;;;;0.70;0.70;;;2.10;99.90;;;;;;5114192;28;20187;-81
2022/12/01 11:23:16;;;;;;;0.60;0.60;;;2.10;99.90;;;;;;5111543;28;20272;-80
2022/12/01 11:25:54;;;;;;;0.40;0.40;;;2.00;99.90;;;;;;5093324;28;20192;-81
2022/12/01 11:28:20;;;;;;;0.63;0.63;;;2.10;99.90;;;;;;5093646;28;20196;-82
2022/12/01 11:30:53;;;;;;;0.60;0.60;;;2.10;99.90;;;;;;5096484;28;20254;-81
2022/12/01 11:33:19;;;;;;;0.70;0.70;;;2.10;99.90;;;;;;5112242;28;20203;-81
2022/12/01 11:35:47;;;;;;;0.60;0.60;;;2.10;99.90;;;;;;5095469;28;20241;-81
2022/12/01 11:38:21;;;;;;;0.60;0.60;;;2.20;99.90;;;;;;5117896;27;20693;-82
2022/12/01 11:40:57;;;;;;;0.50;0.50;;;2.30;99.90;;;;;;5123526;27;20276;-82
2022/12/01 11:43:30;;;;;;;0.52;0.52;;;2.20;99.90;;;;;;5113299;28;20221;-82
2022/12/01 11:46:01;;;;;;;0.65;0.65;;;2.30;99.90;;;;;;5113355;28;20183;-83
2022/12/01 11:48:33;;;;;;;0.80;0.80;;;2.30;99.90;;;;;;5113575;28;20556;-82
2022/12/01 11:51:14;;;;;;;0.50;0.50;;;2.30;99.90;;;;;;5095608;28;20244;-82
2022/12/01 11:53:41;;;;;;;0.55;0.55;;;2.30;99.90;;;;;;5113556;28;20207;-82
2022/12/01 11:56:24;;;;;;;0.50;0.50;;;2.30;99.90;;;;;;5095554;28;20226;-83
2022/12/01 11:58:59;;;;;;;0.70;0.70;;;2.20;99.90;;;;;;5113664;28;20187;-83
2022/12/01 12:01:38;;;;;;;0.50;0.50;;;2.20;99.90;;;;;;5095361;28;20248;-82
2022/12/01 12:04:42;;;;;;;0.70;0.70;;;2.20;99.90;;;;;;5114067;28;20187;-83
2022/12/01 12:07:46;;;;;;;1.85;1.23;;;2.20;99.90;;;;;;5097803;28;20211;-83
2022/12/01 12:10:15;;;;;;;0.50;0.50;;;2.20;99.90;;;;;;5113870;28;20281;-83
2022/12/01 12:13:01;;;;;;;0.60;0.60;;;2.30;99.90;;;;;;5113341;28;20707;-82
2022/12/01 12:15:49;;;;;;;0.85;0.80;;;2.30;99.90;;;;;;5113276;28;20183;-83
2022/12/01 12:18:48;;;;;;;0.70;0.70;;;2.30;99.90;;;;;;5113673;28;20195;-83
2022/12/01 12:21:33;;;;;;;0.60;0.60;;;2.30;99.90;;;;;;5113578;28;20210;-82
2022/12/01 12:23:59;;;;;;;0.60;0.60;;;2.40;99.90;;;;;;5102390;28;20199;-83
2022/12/01 12:26:33;;;;;;;0.50;0.50;;;2.40;99.90;;;;;;5092707;28;20571;-83
2022/12/01 12:29:25;;;;;;;0.52;0.52;;;2.40;99.90;;;;;;5092988;28;20187;-83
2022/12/01 12:32:00;;;;;;;0.50;0.50;;;2.40;99.90;;;;;;5093080;28;20188;-82
2022/12/01 12:34:42;;;;;;;0.50;0.50;;;2.40;99.90;;;;;;5074627;28;20215;-82
2022/12/01 12:37:37;;;;;;;0.60;0.60;;;2.40;99.90;;;;;;5103990;28;20717;-84
2022/12/01 12:40:21;;;;;;;0.50;0.50;;;2.40;99.90;;;;;;5117235;28;20219;-83
2022/12/01 12:42:56;;;;;;;0.60;0.60;;;2.40;99.90;;;;;;5117232;28;20241;-84
2022/12/01 12:45:48;;;;;;;0.60;0.60;;;2.40;99.90;;;;;;5117147;28;20565;-83
2022/12/01 12:48:30;;;;;;;0.60;0.60;;;2.40;99.90;;;;;;5098914;28;20218;-84
2022/12/01 12:51:20;;;;;;;0.50;0.50;;;2.40;99.90;;;;;;5117243;28;20553;-83
2022/12/01 12:53:51;;;;;;;0.60;0.60;;;2.40;99.90;;;;;;5098834;28;20211;-83
2022/12/01 12:56:22;;;;;;;0.50;0.50;;;2.40;99.90;;;;;;5117250;28;20677;-83
2022/12/01 12:59:02;;;;;;;0.60;0.60;;;2.40;99.90;;;;;;5108896;28;20238;-84
2022/12/01 13:01:35;;;;;;;0.90;0.90;;;2.40;99.90;;;;;;5098441;28;20260;-84
2022/12/01 13:04:10;;;;;;;0.60;0.60;;;2.30;99.90;;;;;;5117203;28;20196;-84
2022/12/01 13:06:41;;;;;;;0.52;0.52;;;2.30;99.90;;;;;;5116754;28;20657;-83
2022/12/01 13:09:16;;;;;;;0.60;0.60;;;2.30;99.90;;;;;;5116886;28;20598;-83
2022/12/01 13:11:57;;;;;;;0.50;0.50;;;2.30;99.90;;;;;;5117395;28;20244;-82
2022/12/01 13:14:33;;;;;;;0.57;0.57;;;2.30;99.90;;;;;;5098300;28;20215;-83
2022/12/01 13:17:15;;;;;;;0.60;0.60;;;2.30;99.90;;;;;;5116561;28;20198;-83
2022/12/01 13:19:42;;;;;;;0.50;0.50;;;2.30;99.90;;;;;;5098163;28;20703;-83
2022/12/01 13:22:12;;;;;;;0.60;0.60;;;2.30;99.90;;;;;;5098434;28;20669;-82
2022/12/01 13:24:38;;;;;;;0.60;0.60;;;2.20;99.90;;;;;;5096083;28;20204;-82